^^
Datos históricos de la estación: Murcia-Puente Tocinos
Diario Informe para Abril 2, 2019 Unidades:  Inglés    Métrico   Ambas
Diario Semanal Mensual Anual Configurable
  Máximo: Mínimo: Media:
Temperatura: 72.3 °F 54.3 °F 62.4 °F
Punto de rocio: 54.9 °F 46.2 °F 52.2 °F
Humedad: 94% 40% 72%
Velocidad viento: 10mph 0mph 3.4mph
Racha viento: 18mph - -
Viento- - South
Presión: 30 in 29.8 in -
Precipitación: 0 in    
Historical Graphs
 
 
Tabla de datos para Abril 2, 2019
Hora Temperatura Punto de rocio Presión Viento Velocidad viento Racha viento Humedad Intensidad lluvia(por hora) Nubes
00:00 57.4 °F 54.5 °F 30 in NE 3 mph 5 mph 90% 0 in RA
00:05 57.4 °F 54.5 °F 30 in NE 3.1 mph 4.6 mph 90% 0 in RA
00:10 57.4 °F 54.5 °F 30 in NE 2.9 mph 4.6 mph 90% 0 in RA
00:15 57.4 °F 54.5 °F 30 in NE 2 mph 6 mph 90% 0 in CLR
00:19 57.4 °F 54.5 °F 30 in NE 2.9 mph 2.9 mph 90% 0 in CLR
00:25 57.4 °F 54.5 °F 30 in NE 2 mph 7 mph 90% 0 in CLR
00:29 57.2 °F 54.3 °F 30 in NNE 3.6 mph 6.2 mph 90% 0 in CLR
00:34 57.2 °F 54.3 °F 30 in NE 3.6 mph 5.8 mph 90% 0 in CLR
00:40 57.2 °F 54.3 °F 30 in NNE 4.3 mph 4.6 mph 90% 0 in CLR
00:45 57 °F 54.1 °F 30 in NNE 5 mph 5 mph 90% 0 in CLR
00:50 57 °F 54.3 °F 30 in NE 3.1 mph 4.6 mph 91% 0 in CLR
00:55 57 °F 54.3 °F 30 in NE 3 mph 5 mph 91% 0 in CLR
00:59 57 °F 54.3 °F 30 in NE 2.9 mph 4 mph 91% 0 in CLR
01:05 57 °F 54.3 °F 30 in NE 2.9 mph 4.6 mph 91% 0 in CLR
01:10 57 °F 54.3 °F 30 in NE 2 mph 6 mph 91% 0 in CLR
01:15 57 °F 54.3 °F 30 in NE 2.4 mph 3.5 mph 91% 0 in CLR
01:20 57 °F 54.3 °F 30 in NE 2.9 mph 4.6 mph 91% 0 in CLR
01:25 57 °F 54.3 °F 30 in NE 2 mph 5 mph 91% 0 in CLR
01:30 57 °F 54.3 °F 30 in NE 2 mph 3.5 mph 91% 0 in CLR
01:35 57 °F 54.1 °F 30 in East 2 mph   90% 0 in CLR
01:40 57 °F 54.1 °F 30 in ENE 2 mph   90% 0 in CLR
01:45 57.2 °F 54.3 °F 30 in East 2 mph   90% 0 in CLR
01:50 57.4 °F 54.5 °F 30 in Calm     90% 0 in CLR
01:55 57.2 °F 54 °F 30 in Calm     89% 0 in CLR
02:00 57.4 °F 54.5 °F 30 in Calm   2 mph 90% 0 in CLR
02:05 57.4 °F 54.5 °F 30 in Calm   4.6 mph 90% 0 in CLR
02:10 57.2 °F 54.3 °F 30 in North 2 mph 3.5 mph 90% 0 in CLR
02:15 57.2 °F 54.3 °F 30 in North 2 mph 4 mph 90% 0 in CLR
02:20 57.2 °F 54.3 °F 30 in North 2 mph 4 mph 90% 0 in CLR
02:25 57.2 °F 54.3 °F 30 in North 2 mph 2.3 mph 90% 0 in CLR
02:30 57.4 °F 54.9 °F 30 in North 1.4 mph 2.4 mph 91% 0 in CLR
02:35 57.4 °F 54.9 °F 30 in North 1.4 mph   91% 0 in CLR
02:40 57.4 °F 54.7 °F 30 in North 2 mph 3 mph 91% 0 in CLR
02:45 57.2 °F 54.7 °F 30 in North 1.8 mph   91% 0 in CLR
02:50 57.4 °F 54.9 °F 30 in Calm     91% 0 in CLR
02:55 57.4 °F 54.9 °F 30 in Calm     91% 0 in CLR
03:00 57.4 °F 54.9 °F 30 in Calm     91% 0 in CLR
03:05 57.4 °F 54.9 °F 30 in Calm     91% 0 in CLR
03:10 57.2 °F 54.7 °F 30 in Calm   2.3 mph 91% 0 in CLR
03:15 57.2 °F 54.7 °F 30 in Calm     91% 0 in CLR
03:20 57.2 °F 54.7 °F 30 in Calm     91% 0 in CLR
03:25 57 °F 54.1 °F 30 in Calm     90% 0 in CLR
03:30 57 °F 54.1 °F 30 in Calm     90% 0 in CLR
03:35 57 °F 54.1 °F 30 in Calm   2.9 mph 90% 0 in CLR
03:40 57 °F 54.3 °F 30 in ENE 1.8 mph 1.2 mph 91% 0 in CLR
03:45 56.8 °F 54.1 °F 30 in ENE 2 mph 5 mph 91% 0 in CLR
03:50 56.8 °F 54.1 °F 30 in ENE 1.4 mph   91% 0 in CLR
03:55 56.8 °F 54.1 °F 30 in ENE 1.4 mph   91% 0 in CLR
04:00 56.8 °F 54.1 °F 30 in Calm     91% 0 in CLR
04:05 57 °F 54.3 °F 30 in Calm     91% 0 in CLR
04:10 57 °F 54.3 °F 30 in Calm     91% 0 in CLR
04:15 57 °F 54.3 °F 30 in Calm     91% 0 in CLR
04:20 57 °F 54.3 °F 30 in Calm     91% 0 in CLR
04:25 57 °F 54.3 °F 30 in Calm     91% 0 in CLR
04:30 57 °F 54.3 °F 30 in Calm     91% 0 in CLR
04:35 57 °F 54.3 °F 30 in Calm     91% 0 in CLR
04:40 57 °F 54.3 °F 30 in Calm   4.6 mph 91% 0 in CLR
04:45 57 °F 54.3 °F 30 in Calm   3.6 mph 91% 0 in CLR
04:50 56.8 °F 54.1 °F 30 in SSW 2.4 mph 5.9 mph 91% 0 in CLR
04:55 56.8 °F 54.1 °F 30 in SW 2.4 mph 5.8 mph 91% 0 in CLR
05:00 56.8 °F 54 °F 30 in SSW 5 mph 6 mph 90% 0 in CLR
05:05 56.7 °F 53.8 °F 30 in SSW 4 mph 4.6 mph 90% 0 in CLR
05:10 56.7 °F 53.8 °F 30 in SSW 3.6 mph 3.5 mph 90% 0 in CLR
05:15 56.7 °F 53.8 °F 30 in SSW 3 mph 5 mph 90% 0 in CLR
05:20 56.7 °F 53.8 °F 30 in SSW 2.9 mph 4.6 mph 90% 0 in CLR
05:25 56.5 °F 54 °F 30 in SSW 2.9 mph 4.6 mph 91% 0 in CLR
05:30 56.5 °F 54 °F 30 in South 3.1 mph 4.6 mph 91% 0 in CLR
05:35 56.3 °F 53.8 °F 30 in South 3 mph 6 mph 91% 0 in CLR
05:40 56.1 °F 53.4 °F 30 in SSW 3.6 mph 4.6 mph 91% 0 in CLR
05:45 56.1 °F 53.4 °F 30 in SSW 3.6 mph 4.6 mph 91% 0 in CLR
05:50 56.1 °F 53.4 °F 30 in SSW 3.1 mph 3.5 mph 91% 0 in CLR
05:55 56.1 °F 53.8 °F 30 in SSW 3.1 mph 3.5 mph 92% 0 in CLR
06:00 55.9 °F 53.6 °F 30 in SSW 2 mph 5 mph 92% 0 in CLR
06:05 55.9 °F 53.6 °F 30 in South 2 mph 5 mph 92% 0 in CLR
06:10 55.9 °F 53.6 °F 30 in South 2.9 mph 4.6 mph 92% 0 in CLR
06:15 55.9 °F 53.6 °F 30 in SSE 2.9 mph 4.6 mph 92% 0 in CLR
06:20 55.9 °F 53.6 °F 30 in South 3.1 mph 4.6 mph 92% 0 in CLR
06:25 55.8 °F 53.4 °F 30 in South 3.1 mph 5.8 mph 92% 0 in CLR
06:30 55.8 °F 53.2 °F 30 in South 3.6 mph 4.6 mph 91% 0 in CLR
06:35 55.8 °F 53.2 °F 30 in South 3.6 mph 4.7 mph 91% 0 in CLR
06:40 55.8 °F 53.2 °F 30 in South 5 mph 6 mph 91% 0 in CLR
06:45 55.8 °F 53.2 °F 30 in South 4 mph 5.8 mph 91% 0 in CLR
06:50 55.8 °F 53.2 °F 30 in South 4 mph 4.7 mph 91% 0 in CLR
06:55 55.8 °F 53.2 °F 30 in South 4 mph 5.9 mph 91% 0 in CLR
07:00 55.8 °F 53.2 °F 30 in South 5 mph 6 mph 91% 0 in CLR
07:05 55.9 °F 53.4 °F 30 in South 4 mph 4.7 mph 91% 0 in CLR
07:10 55.9 °F 53.4 °F 30 in SSW 4 mph 4.6 mph 91% 0 in CLR
07:15 56.1 °F 53.2 °F 30 in SSE 4 mph 5.8 mph 90% 0 in CLR
07:20 56.1 °F 53.2 °F 30 in South 3.6 mph 6.2 mph 90% 0 in CLR
07:25 56.1 °F 53.2 °F 30 in South 3.6 mph 4.6 mph 90% 0 in CLR
07:30 56.1 °F 53.2 °F 30 in South 2.9 mph 3.5 mph 90% 0 in CLR
07:35 56.1 °F 53.2 °F 30 in SSW 2.9 mph 4.6 mph 90% 0 in CLR
07:40 56.1 °F 53.2 °F 30 in SSW 2.4 mph 2.3 mph 90% 0 in CLR
07:45 55.8 °F 52.5 °F 30 in SSW 2.4 mph 3.5 mph 89% 0 in CLR
07:50 55.2 °F 52 °F 30 in SSW 1.8 mph 3.5 mph 89% 0 in CLR
07:55 54.9 °F 52 °F 30 in SSW 2 mph 4 mph 90% 0 in CLR
08:00 54.7 °F 51.8 °F 30 in SSW 2 mph 3 mph 90% 0 in CLR
08:05 54.3 °F 51.6 °F 30 in SSW 2 mph   91% 0 in CLR
08:10 54.3 °F 51.6 °F 30 in Calm   1.4 mph 91% 0 in CLR
08:15 54.3 °F 52 °F 30 in Calm   1.2 mph 92% 0 in CLR
08:20 54.3 °F 52 °F 30 in Calm     92% 0 in CLR
08:25 54.3 °F 52 °F 30 in Calm   2.4 mph 92% 0 in CLR
08:30 54.3 °F 52 °F 30 in SSW 1.8 mph 3.5 mph 92% 0 in CLR
08:35 54.5 °F 52.2 °F 30 in SSW 1.8 mph 2.4 mph 92% 0 in CLR
08:40 54.7 °F 52.7 °F 30 in SSW 1.8 mph 2.3 mph 93% 0 in CLR
08:45 54.7 °F 52.7 °F 30 in SSW 1.8 mph   93% 0 in CLR
08:50 54.7 °F 52.7 °F 30 in Calm   1.2 mph 93% 0 in CLR
08:55 54.9 °F 52.9 °F 30 in Calm   2.3 mph 93% 0 in CLR
09:00 55 °F 53.1 °F 30 in SSW 1 mph 3 mph 93% 0 in CLR
09:05 55.2 °F 53.4 °F 30 in SSW 1.4 mph 2.9 mph 94% 0 in CLR
09:10 55.4 °F 53.4 °F 30 in SSW 1.4 mph 2.3 mph 93% 0 in CLR
09:15 55.6 °F 53.6 °F 30 in South 1.4 mph 4.6 mph 93% 0 in CLR
09:20 55.8 °F 53.8 °F 30 in SSW 2 mph 5 mph 93% 0 in CLR
09:25 55.9 °F 54 °F 30 in SSW 2 mph 4.6 mph 93% 0 in CLR
09:30 56.1 °F 53.8 °F 30 in South 3.1 mph 4.6 mph 92% 0 in CLR
09:35 56.1 °F 53.8 °F 30 in SSW 3.1 mph 4.6 mph 92% 0 in CLR
09:40 56.5 °F 54 °F 30 in South 3.1 mph 3.5 mph 91% 0 in CLR
09:45 56.8 °F 54.1 °F 30 in WSW 3.1 mph 4.6 mph 91% 0 in CLR
09:50 57 °F 54.1 °F 30 in West 2.4 mph 4.6 mph 90% 0 in CLR
09:55 57 °F 53.8 °F 30 in West 2.4 mph 4.6 mph 89% 0 in CLR
10:00 57 °F 54 °F 30 in West 2 mph 6 mph 89% 0 in CLR
10:05 57.4 °F 54 °F 30 in WSW 2.9 mph 4.6 mph 88% 0 in CLR
10:10 57.4 °F 54 °F 30 in NW 2.9 mph 4.6 mph 88% 0 in CLR
10:15 57.6 °F 54 °F 30 in WNW 2.9 mph 2.3 mph 88% 0 in CLR
10:20 57.7 °F 54 °F 30 in WNW 1.8 mph 4.6 mph 87% 0 in CLR
10:25 57.9 °F 53.8 °F 30 in SW 1.8 mph 5.8 mph 86% 0 in CLR
10:30 57.9 °F 53.4 °F 30 in SSW 2.9 mph 4.6 mph 85% 0 in CLR
10:35 58.3 °F 53.8 °F 30 in WSW 2.9 mph 4.6 mph 85% 0 in CLR
10:40 58.5 °F 53.6 °F 30 in SSW 3.6 mph 6.9 mph 84% 0 in CLR
10:45 58.6 °F 53.4 °F 30 in WNW 3.6 mph 4.6 mph 83% 0 in CLR
10:50 58.6 °F 53.4 °F 30 in SW 4 mph 4.6 mph 83% 0 in CLR
10:55 59.2 °F 53.8 °F 30 in SW 4 mph 4.6 mph 82% 0 in CLR
11:00 59.4 °F 54 °F 30 in SW 2 mph 5 mph 82% 0 in CLR
11:05 59.7 °F 54 °F 30 in WNW 2.4 mph   81% 0 in CLR
11:10 60.3 °F 54.1 °F 30 in East 1.4 mph 4.6 mph 80% 0 in CLR
11:15 60.6 °F 54.1 °F 30 in West 1.4 mph 6.4 mph 79% 0 in CLR
11:20 60.8 °F 54 °F 30 in South 2.4 mph 6.9 mph 78% 0 in CLR
11:25 61.2 °F 54 °F 30 in South 2.4 mph 4.6 mph 77% 0 in CLR
11:30 61.3 °F 53.8 °F 30 in WNW 3.6 mph 4.6 mph 76% 0 in CLR
11:35 61.3 °F 53.8 °F 30 in WSW 3 mph 7 mph 76% 0 in CLR
11:40 61.9 °F 54 °F 30 in SSW 3.1 mph 6.9 mph 75% 0 in CLR
11:45 62.1 °F 54.3 °F 30 in South 3.1 mph 3.5 mph 76% 0 in CLR
11:50 62.6 °F 54.1 °F 30 in West 2.9 mph 4.7 mph 74% 0 in CLR
11:55 62.8 °F 54 °F 30 in WSW 2.9 mph 6.9 mph 73% 0 in CLR
12:00 62.8 °F 53.6 °F 30 in WSW 3 mph 7 mph 72% 0 in CLR
12:05 63.1 °F 53.6 °F 30 in WSW 3 mph 10 mph 71% 0 in CLR
12:10 63.3 °F 53.8 °F 30 in West 3.6 mph 2.3 mph 71% 0 in CLR
12:15 64 °F 53.2 °F 30 in SW 3.6 mph 6.9 mph 68% 0 in CLR
12:20 64.2 °F 53.4 °F 30 in SSW 2.9 mph 6.9 mph 68% 0 in CLR
12:25 64.4 °F 53.2 °F 30 in SSW 2.9 mph 4.6 mph 67% 0 in CLR
12:30 64.6 °F 52.5 °F 30 in SSW 3.1 mph 5.8 mph 65% 0 in CLR
12:35 65.1 °F 53.1 °F 30 in East 3.1 mph   65% 0 in CLR
12:40 65.8 °F 52.5 °F 30 in South 2.4 mph 5.8 mph 62% 0 in CLR
12:45 66 °F 52.5 °F 30 in West 2.4 mph 1.4 mph 62% 0 in CLR
12:50 66 °F 51.3 °F 30 in SW 2.4 mph 4.6 mph 59% 0 in CLR
12:55 66 °F 50.7 °F 30 in SSW 2.4 mph 2.3 mph 58% 0 in CLR
13:00 66.6 °F 51.3 °F 30 in SSW 2 mph 5 mph 58% 0 in CLR
13:05 66.9 °F 51.6 °F 30 in SW 2 mph 10 mph 58% 0 in CLR
13:10 66.9 °F 50.7 °F 30 in SW 4.3 mph 5.2 mph 56% 0 in CLR
13:15 67.3 °F 51.1 °F 30 in WSW 4.3 mph 4.6 mph 56% 0 in CLR
13:20 67.3 °F 51.1 °F 30 in NW 3.6 mph 6.9 mph 56% 0 in CLR
13:25 67.6 °F 50.4 °F 30 in WSW 3.6 mph 8.1 mph 54% 0 in CLR
13:30 67.5 °F 50.7 °F 30 in West 4 mph 5.9 mph 55% 0 in CLR
13:35 67.5 °F 51.3 °F 29.9 in NNW 4 mph 6.9 mph 56% 0 in CLR
13:40 67.6 °F 50.9 °F 29.9 in NE 4.7 mph 4.7 mph 55% 0 in CLR
13:45 68.2 °F 51.4 °F 29.9 in SSE 4.7 mph 4.6 mph 55% 0 in CLR
13:50 68.5 °F 51.3 °F 29.9 in West 2.9 mph 6.9 mph 54% 0 in CLR
13:55 68.4 °F 51.1 °F 29.9 in NW 2.9 mph 9.2 mph 54% 0 in CLR
14:00 68.4 °F 50.5 °F 29.9 in NW 6 mph 9 mph 53% 0 in CLR
14:05 68.4 °F 48.9 °F 29.9 in West 5.4 mph 10.4 mph 50% 0 in CLR
14:10 68.2 °F 47.7 °F 29.9 in WNW 5.2 mph 9.2 mph 48% 0 in CLR
14:15 68.4 °F 48.6 °F 29.9 in NNW 5.2 mph 6.9 mph 49% 0 in CLR
14:20 68.9 °F 48.9 °F 29.9 in West 4.7 mph 9.2 mph 49% 0 in CLR
14:25 68.9 °F 48.9 °F 29.9 in ESE 4.7 mph 4.6 mph 49% 0 in CLR
14:30 69.1 °F 48.6 °F 29.9 in West 4.7 mph 8.1 mph 48% 0 in CLR
14:35 69.4 °F 48.9 °F 29.9 in SE 4.7 mph 6.9 mph 48% 0 in CLR
14:40 70 °F 49.5 °F 29.9 in SW 4.7 mph 5.8 mph 48% 0 in CLR
14:45 70.3 °F 49.1 °F 29.9 in NE 4.7 mph 3.5 mph 47% 0 in CLR
14:50 70.7 °F 48.9 °F 29.9 in South 2.9 mph 9.2 mph 46% 0 in CLR
14:55 70.9 °F 49.1 °F 29.9 in SE 2.9 mph 5.8 mph 46% 0 in CLR
15:00 71.1 °F 48 °F 29.9 in South 3 mph 6 mph 44% 0 in CLR
15:05 70.9 °F 46.6 °F 29.9 in West 3.6 mph 9.2 mph 42% 0 in CLR
15:10 70.9 °F 47.8 °F 29.9 in South 4.7 mph 10.7 mph 44% 0 in CLR
15:15 70.3 °F 48 °F 29.9 in SSW 4.7 mph 9.2 mph 45% 0 in CLR
15:20 70.3 °F 48 °F 29.9 in WSW 6.9 mph 9.2 mph 45% 0 in CLR
15:25 70.9 °F 47.3 °F 29.9 in SW 6.9 mph 9.2 mph 43% 0 in CLR
15:30 71.1 °F 46.8 °F 29.9 in SE 5.4 mph 8.1 mph 42% 0 in CLR
15:35 71.8 °F 46.8 °F 29.9 in SSE 5.4 mph 11.2 mph 41% 0 in CLR
15:40 72 °F 46.2 °F 29.9 in SSW 5.9 mph 9.2 mph 40% 0 in CLR
15:45 71.8 °F 46.8 °F 29.9 in ESE 5.9 mph 7.4 mph 41% 0 in CLR
15:50 71.6 °F 46.6 °F 29.9 in SSE 5.2 mph 6.9 mph 41% 0 in CLR
15:55 72 °F 46.2 °F 29.9 in SW 5.2 mph 9.2 mph 40% 0 in CLR
16:00 72.3 °F 47.3 °F 29.9 in SW 6 mph 10 mph 41% 0 in CLR
16:05 72.1 °F 47.1 °F 29.9 in South 5.4 mph 6.9 mph 41% 0 in CLR
16:10 72.3 °F 47.3 °F 29.9 in SW 5.2 mph 5.8 mph 41% 0 in CLR
16:15 72.1 °F 47.1 °F 29.9 in SSW 5.2 mph 9.2 mph 41% 0 in CLR
16:20 72 °F 46.9 °F 29.9 in West 5.4 mph 5.8 mph 41% 0 in CLR
16:25 72 °F 47.7 °F 29.9 in SSE 5.4 mph 12.5 mph 42% 0 in CLR
16:30 72.1 °F 47.1 °F 29.9 in SSW 5.4 mph 12.7 mph 41% 0 in CLR
16:35 72.1 °F 47.8 °F 29.9 in SSE 5.4 mph 6.9 mph 42% 0 in CLR
16:40 72 °F 51.3 °F 29.9 in SSE 5.9 mph 16.1 mph 48% 0 in CLR
16:45 71.1 °F 52.5 °F 29.9 in SSW 5.9 mph 13.5 mph 52% 0 in CLR
16:50 70.5 °F 52 °F 29.9 in South 9.7 mph 10.4 mph 52% 0 in CLR
16:55 70.3 °F 52.3 °F 29.9 in SSE 9.7 mph 13.8 mph 53% 0 in CLR
17:00 70.2 °F 51.6 °F 29.9 in SSE 9 mph 14 mph 52% 0 in CLR
17:05 70.3 °F 52.3 °F 29.9 in SSE 9 mph 18 mph 53% 0 in CLR
17:10 70 °F 51.4 °F 29.9 in SSE 10 mph 13.8 mph 52% 0 in CLR
17:15 70.2 °F 51.6 °F 29.9 in SSE 10 mph 11.5 mph 52% 0 in CLR
17:20 70.3 °F 51.3 °F 29.9 in SSE 8.7 mph 12.7 mph 51% 0 in CLR
17:25 70.2 °F 51.6 °F 29.9 in SSW 8.7 mph 15 mph 52% 0 in CLR
17:30 70.5 °F 51.4 °F 29.9 in South 8.7 mph 10.4 mph 51% 0 in CLR
17:35 70.9 °F 51.3 °F 29.8 in SSE 8.7 mph 10.4 mph 50% 0 in CLR
17:40 70.9 °F 51.3 °F 29.8 in South 7.6 mph 10.4 mph 50% 0 in CLR
17:45 70.7 °F 51.1 °F 29.8 in SSE 7.6 mph 10.4 mph 50% 0 in CLR
17:50 70.7 °F 51.1 °F 29.8 in South 8.1 mph 9.2 mph 50% 0 in CLR
17:55 71.1 °F 51.4 °F 29.8 in South 8.1 mph 10.4 mph 50% 0 in CLR
18:00 71.2 °F 51.1 °F 29.8 in South 6 mph 12 mph 49% 0 in CLR
18:05 71.2 °F 50.5 °F 29.8 in SSE 6.2 mph 8.1 mph 48% 0 in CLR
18:10 71.2 °F 50 °F 29.8 in SSE 5.4 mph 5.8 mph 47% 0 in CLR
18:15 71.4 °F 50.7 °F 29.8 in South 5.4 mph 7.4 mph 48% 0 in CLR
18:20 71.8 °F 50.5 °F 29.8 in ESE 4.7 mph 6.9 mph 47% 0 in CLR
18:25 72.3 °F 50.4 °F 29.8 in SSW 4.7 mph 8.1 mph 46% 0 in CLR
18:30 72.1 °F 50.2 °F 29.8 in SSW 5.4 mph 6.9 mph 46% 0 in CLR
18:35 72 °F 50 °F 29.8 in East 5.4 mph 6.4 mph 46% 0 in CLR
18:40 72 °F 50 °F 29.8 in South 3.6 mph 5.8 mph 46% 0 in CLR
18:45 72.1 °F 51.4 °F 29.8 in South 3.6 mph 11.4 mph 48% 0 in CLR
18:50 71.8 °F 51.6 °F 29.8 in South 6.2 mph 10.4 mph 49% 0 in CLR
18:55 71.2 °F 51.1 °F 29.8 in SSW 6.2 mph 10.4 mph 49% 0 in CLR
19:00 71.4 °F 51.3 °F 29.8 in South 7 mph 12 mph 49% 0 in CLR
19:05 71.2 °F 51.6 °F 29.8 in SSE 7.4 mph 12.7 mph 50% 0 in CLR
19:10 71.1 °F 51.4 °F 29.8 in SSE 7.4 mph 11.4 mph 50% 0 in CLR
19:15 70.9 °F 51.8 °F 29.8 in SSE 7.4 mph 11.5 mph 51% 0 in CLR
19:20 70.7 °F 52.2 °F 29.8 in SE 7.6 mph 8.1 mph 52% 0 in CLR
19:25 70.5 °F 52 °F 29.8 in SSE 7.6 mph 11.5 mph 52% 0 in CLR
19:30 70.2 °F 51.6 °F 29.8 in SSE 6.4 mph 12.7 mph 52% 0 in CLR
19:35 69.4 °F 51.6 °F 29.8 in ESE 6.4 mph 8.1 mph 53% 0 in CLR
19:40 69.3 °F 51.4 °F 29.8 in SE 7.6 mph 10.4 mph 53% 0 in CLR
19:45 68.9 °F 51.1 °F 29.8 in SSE 7.6 mph 9.2 mph 53% 0 in CLR
19:50 68.7 °F 51.4 °F 29.8 in ESE 7.4 mph 6.9 mph 54% 0 in CLR
19:55 68.5 °F 51.6 °F 29.8 in ESE 7.4 mph 6.9 mph 55% 0 in CLR
20:00 68.2 °F 51.4 °F 29.8 in ESE 5 mph 8 mph 55% 0 in CLR
20:05 67.6 °F 51.4 °F 29.8 in SE 5.2 mph 6.9 mph 56% 0 in CLR
20:10 67.6 °F 51.4 °F 29.8 in ESE 4 mph 5.9 mph 56% 0 in CLR
20:15 67.5 °F 51.3 °F 29.8 in ESE 4 mph 6.9 mph 56% 0 in CLR
20:20 67.3 °F 51.4 °F 29.8 in SSE 4.3 mph 4.6 mph 57% 0 in CLR
20:25 67.3 °F 51.4 °F 29.8 in South 4.3 mph 4.6 mph 57% 0 in CLR
20:30 67.3 °F 50.2 °F 29.8 in SSE 3.6 mph 8.1 mph 54% 0 in CLR
20:35 67.3 °F 48.9 °F 29.8 in SW 3.6 mph 6.4 mph 52% 0 in CLR
20:40 67.3 °F 48.9 °F 29.8 in SSW 4.7 mph 4.7 mph 52% 0 in CLR
20:45 67.1 °F 48.4 °F 29.8 in WSW 4.7 mph 8.1 mph 51% 0 in CLR
20:50 67.1 °F 47.8 °F 29.8 in SW 3 mph 7 mph 50% 0 in CLR
20:55 66.9 °F 47.1 °F 29.8 in SW 3.6 mph 6.9 mph 49% 0 in CLR
21:00 66.9 °F 48.4 °F 29.8 in SW 5 mph 6 mph 51% 0 in CLR
21:05 66.9 °F 48.7 °F 29.9 in SSW 4.7 mph 5.8 mph 52% 0 in CLR
21:10 66.7 °F 50.2 °F 29.9 in WSW 4 mph 6.9 mph 55% 0 in CLR
21:15 66.6 °F 50.4 °F 29.9 in SW 4 mph 5.8 mph 56% 0 in CLR
21:20 66.2 °F 50.5 °F 29.9 in SW 5 mph 9 mph 57% 0 in CLR
21:25 66 °F 50.4 °F 29.9 in SW 5.2 mph 5.8 mph 57% 0 in CLR
21:30 65.8 °F 50.5 °F 29.9 in WSW 3.6 mph 3.5 mph 58% 0 in CLR
21:35 65.7 °F 50.5 °F 29.9 in WNW 3.6 mph 4 mph 58% 0 in CLR
21:40 65.7 °F 50.5 °F 29.9 in WNW 2 mph   58% 0 in CLR
21:45 65.5 °F 50.7 °F 29.9 in SW 2 mph 4.6 mph 59% 0 in CLR
21:50 65.3 °F 50.5 °F 29.9 in SW 2 mph 2.3 mph 59% 0 in CLR
21:55 65.1 °F 50.9 °F 29.9 in SW 2 mph 4.6 mph 60% 0 in CLR
22:00 65.1 °F 50.9 °F 29.9 in SW 2 mph 5 mph 60% 0 in CLR
22:05 64.9 °F 51.3 °F 29.9 in SW 2.4 mph   61% 0 in CLR
22:10 64.9 °F 51.3 °F 29.9 in SW 1.4 mph   61% 0 in CLR
22:15 64.8 °F 51.1 °F 29.9 in SW 1.4 mph   61% 0 in CLR
22:20 64.6 °F 50.7 °F 29.9 in Calm     61% 0 in CLR
22:25 64.4 °F 50.7 °F 29.9 in Calm     61% 0 in CLR
22:30 64.2 °F 50.5 °F 29.9 in Calm     61% 0 in CLR
22:35 64 °F 50.7 °F 29.9 in Calm   3.1 mph 62% 0 in CLR
22:40 64 °F 51.3 °F 29.9 in NNW 1.4 mph 4.6 mph 63% 0 in CLR
22:45 63.7 °F 51.6 °F 29.9 in NNW 1.4 mph   65% 0 in CLR
22:50 63.3 °F 51.8 °F 29.9 in NNW 2 mph 5.8 mph 66% 0 in CLR
22:55 62.8 °F 52.2 °F 29.9 in NNW 2 mph 5.8 mph 68% 0 in CLR
23:00 62.6 °F 52.3 °F 29.9 in NNW 3 mph 5 mph 69% 0 in CLR
23:05 62.4 °F 52.2 °F 29.9 in NW 3.6 mph   69% 0 in CLR
23:10 62.4 °F 52.2 °F 29.9 in NW 1.4 mph   69% 0 in CLR
23:15 62.4 °F 52.2 °F 29.9 in NW 1.4 mph   69% 0 in CLR
23:20 62.4 °F 52.2 °F 29.9 in Calm   5.2 mph 69% 0 in CLR
23:25 62.4 °F 52.5 °F 29.9 in Calm   9.7 mph 70% 0 in CLR
23:30 62.1 °F 52.2 °F 29.9 in ENE 5 mph 10 mph 70% 0 in CLR
23:35 61.5 °F 52.9 °F 29.9 in ESE 4.3 mph 5.8 mph 73% 0 in CLR
23:40 61.3 °F 53.1 °F 29.9 in ENE 4.3 mph 5.8 mph 74% 0 in CLR
23:45 61 °F 53.4 °F 29.9 in NE 4.3 mph 5.8 mph 76% 0 in CLR
23:50 60.8 °F 53.4 °F 29.9 in NE 4 mph 4.6 mph 77% 0 in CLR
23:55 60.8 °F 54 °F 29.9 in NE 4 mph 8.1 mph 78% 0 in CLR
Murcia-Puente Tocinos, España
Compliments of Weather Underground - 2.75 mb

La estación de MeteoMurcia.com, publica sus datos en los siguientes proyectos:

Weather Underground PWS IMURCIAP2 Meteoclimatic www.awekas.at

W3Counter
Web Analytics